Time;durP1;ratioP1;P1;durP2;ratioP2;P2;SDS_P1;SDS_P2;PMS_P1;PMS_P2;Temp;Humidity;BMP_temperature;BMP_pressure;BME280_temperature;BME280_humidity;BME280_pressure;Samples;Min_cycle;Max_cycle;Signal;HPM_P1;HPM_P2
2023/05/29 00:00:48;;;;;;;;;;;;;;;28.93;40.55;94081.47;5061527;28;8842;-61
2023/05/29 00:03:13;;;;;;;;;;;;;;;28.88;41.64;94077.53;5051556;28;7372;-61
2023/05/29 00:05:58;;;;;;;;;;;;;;;28.92;41.12;94075.19;5055719;28;7285;-61
2023/05/29 00:08:36;;;;;;;;;;;;;;;28.94;41.03;94082.97;5070343;28;7282;-61
2023/05/29 00:11:33;;;;;;;;;;;;;;;28.92;40.68;94080.72;5056441;28;7290;-61
2023/05/29 00:14:35;;;;;;;;;;;;;;;28.92;41.37;94088.28;4984497;28;9046;-61
2023/05/29 00:17:52;;;;;;;;;;;;;;;28.91;41.12;94084.03;4916735;29;7371;-61
2023/05/29 00:20:20;;;;;;;;;;;;;;;28.88;41.10;94083.06;4825895;29;7032;-61
2023/05/29 00:22:49;;;;;;;;;;;;;;;28.91;41.28;94084.03;4826800;29;7264;-61
2023/05/29 00:25:40;;;;;;;;;;;;;;;28.89;40.69;94081.06;4842358;29;7378;-61
2023/05/29 00:28:17;;;;;;;;;;;;;;;28.88;40.92;94085.84;4826270;29;9532;-61
2023/05/29 00:31:01;;;;;;;;;;;;;;;28.83;41.27;94081.19;4843751;29;7016;-61
2023/05/29 00:33:27;;;;;;;;;;;;;;;28.85;40.94;94075.88;4825543;29;9003;-61
2023/05/29 00:36:12;;;;;;;;;;;;;;;28.85;41.26;94081.41;4846364;29;7020;-61
2023/05/29 00:38:57;;;;;;;;;;;;;;;28.86;40.89;94079.38;4820020;29;7627;-61
2023/05/29 00:41:32;;;;;;;;;;;;;;;28.83;40.52;94083.22;4832754;29;7326;-61
2023/05/29 00:44:24;;;;;;;;;;;;;;;28.85;40.73;94075.13;4818616;29;7050;-61
2023/05/29 00:47:11;;;;;;;;;;;;;;;28.83;40.98;94074.91;4782546;30;7535;-61
2023/05/29 00:49:45;;;;;;;;;;;;;;;28.81;41.12;94072.69;4788244;29;9419;-61
2023/05/29 00:52:37;;;;;;;;;;;;;;;28.82;40.79;94071.41;4866673;29;7222;-62
2023/05/29 00:55:13;;;;;;;;;;;;;;;28.80;40.47;94073.97;4878539;29;7167;-62
2023/05/29 00:57:40;;;;;;;;;;;;;;;28.81;41.07;94075.47;4922102;28;7464;-61
2023/05/29 01:00:13;;;;;;;;;;;;;;;28.77;40.81;94075.06;4968692;28;7278;-61
2023/05/29 01:02:48;;;;;;;;;;;;;;;28.72;40.93;94072.41;4971678;28;7025;-61
2023/05/29 01:05:14;;;;;;;;;;;;;;;28.71;41.63;94077.19;4970913;28;9033;-61
2023/05/29 01:07:50;;;;;;;;;;;;;;;28.76;41.40;94073.56;4975558;28;7356;-61
2023/05/29 01:10:18;;;;;;;;;;;;;;;28.74;40.95;94081.66;4956472;28;7254;-61
2023/05/29 01:12:56;;;;;;;;;;;;;;;28.73;41.55;94071.16;4970690;28;8349;-61
2023/05/29 01:16:10;;;;;;;;;;;;;;;28.70;41.19;94077.75;4954657;28;7117;-61
2023/05/29 01:19:02;;;;;;;;;;;;;;;28.71;41.25;94074.44;4953537;28;8911;-61
2023/05/29 01:22:06;;;;;;;;;;;;;;;28.74;41.54;94076.13;4952177;28;6920;-61
2023/05/29 01:24:58;;;;;;;;;;;;;;;28.71;41.24;94082.00;4942918;28;9231;-61
2023/05/29 01:27:28;;;;;;;;;;;;;;;28.70;41.51;94081.25;4959382;28;9056;-61
2023/05/29 01:30:22;;;;;;;;;;;;;;;28.72;41.19;94075.19;4933127;28;7469;-61
2023/05/29 01:32:48;;;;;;;;;;;;;;;28.71;40.98;94082.72;4936509;28;7290;-61
2023/05/29 01:35:25;;;;;;;;;;;;;;;28.71;40.74;94077.19;4937441;29;9544;-61
2023/05/29 01:38:12;;;;;;;;;;;;;;;28.69;41.12;94071.47;4946063;28;7027;-61
2023/05/29 01:40:47;;;;;;;;;;;;;;;28.69;41.57;94079.75;4919146;29;9079;-61
2023/05/29 01:43:35;;;;;;;;;;;;;;;28.69;40.95;94085.28;4952903;29;9028;-61
2023/05/29 01:46:32;;;;;;;;;;;;;;;28.66;41.23;94080.84;4953515;29;9421;-61
2023/05/29 01:49:20;;;;;;;;;;;;;;;28.65;41.33;94067.53;4894432;29;7566;-61
2023/05/29 01:52:01;;;;;;;;;;;;;;;28.67;41.44;94079.56;4900065;29;7128;-61
2023/05/29 01:54:39;;;;;;;;;;;;;;;28.65;41.31;94079.34;4909125;29;7066;-60
2023/05/29 01:57:21;;;;;;;;;;;;;;;28.62;41.19;94074.91;4878033;29;8989;-61
2023/05/29 02:00:08;;;;;;;;;;;;;;;28.63;40.84;94078.41;4877664;29;7038;-61
2023/05/29 02:03:01;;;;;;;;;;;;;;;28.64;40.86;94083.41;4914687;29;8794;-62
2023/05/29 02:05:29;;;;;;;;;;;;;;;28.63;41.44;94075.63;4966917;28;8806;-61
2023/05/29 02:07:59;;;;;;;;;;;;;;;28.66;41.53;94075.31;4972281;28;9621;-61
2023/05/29 02:10:32;;;;;;;;;;;;;;;28.65;41.01;94073.81;4961855;28;7838;-61
2023/05/29 02:13:12;;;;;;;;;;;;;;;28.65;41.23;94079.34;4956793;28;9444;-61
2023/05/29 02:16:04;;;;;;;;;;;;;;;28.66;40.78;94074.56;4961446;28;9152;-61
2023/05/29 02:18:36;;;;;;;;;;;;;;;28.65;41.05;94070.31;4972567;28;9178;-61
2023/05/29 02:21:12;;;;;;;;;;;;;;;28.63;40.63;94076.38;4976930;28;7572;-60
2023/05/29 02:24:33;;;;;;;;;;;;;;;28.63;41.47;94081.94;4956402;28;7399;-61
2023/05/29 02:27:30;;;;;;;;;;;;;;;28.64;41.11;94080.66;5055006;28;7253;-61
2023/05/29 02:30:27;;;;;;;;;;;;;;;28.64;41.46;94080.66;4966144;28;7430;-61
2023/05/29 02:33:25;;;;;;;;;;;;;;;28.63;41.17;94072.88;4890358;29;9339;-61
2023/05/29 02:36:17;;;;;;;;;;;;;;;28.62;40.88;94077.69;4885160;29;7286;-61
2023/05/29 02:38:43;;;;;;;;;;;;;;;28.60;41.33;94071.91;4896903;29;9135;-61
2023/05/29 02:41:10;;;;;;;;;;;;;;;28.58;41.67;94074.47;4886234;29;7027;-61
2023/05/29 02:43:38;;;;;;;;;;;;;;;28.57;41.12;94072.22;4880626;29;7485;-61
2023/05/29 02:46:16;;;;;;;;;;;;;;;28.56;41.23;94074.25;4895523;29;7003;-60
2023/05/29 02:48:51;;;;;;;;;;;;;;;28.55;41.20;94069.25;4877704;29;7177;-61
2023/05/29 02:51:59;;;;;;;;;;;;;;;28.54;40.79;94076.06;4880024;29;7260;-61
2023/05/29 02:55:01;;;;;;;;;;;;;;;28.53;41.51;94066.28;5082742;27;6693;-60
2023/05/29 02:57:29;;;;;;;;;;;;;;;28.52;41.29;94064.78;5060748;28;7267;-60
2023/05/29 02:59:58;;;;;;;;;;;;;;;28.51;41.48;94064.06;5056264;28;7122;-59
2023/05/29 03:02:30;;;;;;;;;;;;;;;28.54;41.29;94070.53;5062457;28;9173;-60
2023/05/29 03:05:19;;;;;;;;;;;;;;;28.52;41.46;94071.06;5085888;28;7011;-60
2023/05/29 03:07:47;;;;;;;;;;;;;;;28.49;41.33;94065.88;5082804;28;7052;-60
2023/05/29 03:10:17;;;;;;;;;;;;;;;28.49;41.24;94072.16;5069851;28;8613;-60
2023/05/29 03:13:01;;;;;;;;;;;;;;;28.48;41.67;94070.66;5070101;28;7346;-59
2023/05/29 03:15:33;;;;;;;;;;;;;;;28.45;41.41;94060.66;5058358;28;7124;-60
2023/05/29 03:18:08;;;;;;;;;;;;;;;28.46;41.21;94064.94;5063111;28;7493;-60
2023/05/29 03:21:02;;;;;;;;;;;;;;;28.47;41.03;94065.69;5062417;28;8561;-59
2023/05/29 03:23:48;;;;;;;;;;;;;;;28.47;40.97;94063.63;5049576;28;7841;-60
2023/05/29 03:26:19;;;;;;;;;;;;;;;28.46;41.10;94064.94;5065033;28;7264;-59
2023/05/29 03:29:29;;;;;;;;;;;;;;;28.46;41.26;94064.94;5069737;28;8265;-60
2023/05/29 03:32:22;;;;;;;;;;;;;;;28.47;41.34;94076.75;5077152;28;7519;-60
2023/05/29 03:35:41;;;;;;;;;;;;;;;28.47;41.29;94077.47;5049276;28;7060;-59
2023/05/29 03:38:15;;;;;;;;;;;;;;;28.46;41.03;94073.22;5028605;28;8119;-60
2023/05/29 03:40:43;;;;;;;;;;;;;;;28.45;40.81;94074.50;5044829;28;7160;-60
2023/05/29 03:43:10;;;;;;;;;;;;;;;28.44;40.96;94067.50;5035058;28;9214;-59
2023/05/29 03:45:41;;;;;;;;;;;;;;;28.43;41.28;94074.31;5041783;28;7377;-60
2023/05/29 03:48:16;;;;;;;;;;;;;;;28.45;41.17;94077.28;5040814;28;9308;-60
2023/05/29 03:50:48;;;;;;;;;;;;;;;28.46;41.21;94076.00;5028079;28;7349;-59
2023/05/29 03:53:14;;;;;;;;;;;;;;;28.47;41.43;94083.00;5023999;28;9356;-59
2023/05/29 03:55:41;;;;;;;;;;;;;;;28.45;41.44;94082.09;5046752;28;7223;-59
2023/05/29 03:58:12;;;;;;;;;;;;;;;28.43;41.65;94085.38;5042201;28;7235;-60
2023/05/29 04:00:40;;;;;;;;;;;;;;;28.43;41.13;94081.88;5085334;28;9112;-60
2023/05/29 04:03:08;;;;;;;;;;;;;;;28.41;41.04;94087.94;5085277;28;7257;-60
2023/05/29 04:05:38;;;;;;;;;;;;;;;28.40;41.02;94092.00;5046359;28;7028;-59
2023/05/29 04:08:05;;;;;;;;;;;;;;;28.44;40.85;94097.19;5049694;28;7713;-60
2023/05/29 04:10:33;;;;;;;;;;;;;;;28.41;40.85;94092.72;5057684;28;6992;-60
2023/05/29 04:13:06;;;;;;;;;;;;;;;28.41;41.20;94098.25;5066241;28;7100;-60
2023/05/29 04:15:36;;;;;;;;;;;;;;;28.41;41.51;94095.47;5044550;28;8638;-60
2023/05/29 04:18:10;;;;;;;;;;;;;;;28.44;41.37;94094.41;5063224;28;9236;-60
2023/05/29 04:20:39;;;;;;;;;;;;;;;28.44;40.75;94097.94;5043029;28;9131;-59
2023/05/29 04:23:08;;;;;;;;;;;;;;;28.43;41.08;94092.94;5049176;28;9045;-59
2023/05/29 04:25:39;;;;;;;;;;;;;;;28.45;41.04;94098.69;5052097;28;8305;-59
2023/05/29 04:28:13;;;;;;;;;;;;;;;28.40;41.38;94103.06;5070396;28;9549;-59
2023/05/29 04:30:41;;;;;;;;;;;;;;;28.38;40.69;94105.63;5048836;28;7160;-59
2023/05/29 04:33:20;;;;;;;;;;;;;;;28.37;41.42;94115.19;5053599;28;9165;-59
2023/05/29 04:36:10;;;;;;;;;;;;;;;28.38;41.19;94114.63;5054913;28;7318;-59
2023/05/29 04:38:59;;;;;;;;;;;;;;;28.38;41.19;94110.41;5056461;28;9231;-59
2023/05/29 04:41:40;;;;;;;;;;;;;;;28.33;41.03;94115.53;5067924;28;7253;-59
2023/05/29 04:44:11;;;;;;;;;;;;;;;28.36;41.01;94110.94;5036111;28;6989;-59
2023/05/29 04:46:51;;;;;;;;;;;;;;;28.37;41.34;94115.19;5036339;28;9127;-60
2023/05/29 04:49:22;;;;;;;;;;;;;;;28.38;40.83;94106.34;5048355;28;7279;-60
2023/05/29 04:51:52;;;;;;;;;;;;;;;28.42;40.82;94113.56;5042820;28;9090;-59
2023/05/29 04:54:25;;;;;;;;;;;;;;;28.40;41.07;94114.13;5051576;28;9532;-59
2023/05/29 04:56:53;;;;;;;;;;;;;;;28.41;41.13;94121.13;5047214;28;7322;-59
2023/05/29 04:59:22;;;;;;;;;;;;;;;28.41;41.44;94123.88;5030530;28;7286;-59
2023/05/29 05:01:48;;;;;;;;;;;;;;;28.40;40.70;94122.41;5035498;28;8220;-59
2023/05/29 05:04:21;;;;;;;;;;;;;;;28.40;41.29;94121.66;5044770;28;7035;-60
2023/05/29 05:07:03;;;;;;;;;;;;;;;28.38;40.69;94122.94;5035296;28;7269;-60
2023/05/29 05:09:36;;;;;;;;;;;;;;;28.38;40.88;94124.22;5034962;28;8704;-60
2023/05/29 05:12:47;;;;;;;;;;;;;;;28.38;41.11;94124.22;5053378;28;9140;-60
2023/05/29 05:15:15;;;;;;;;;;;;;;;28.36;41.04;94130.31;5051606;28;7183;-60
2023/05/29 05:17:58;;;;;;;;;;;;;;;28.35;40.73;94126.78;5053405;28;7091;-60
2023/05/29 05:21:08;;;;;;;;;;;;;;;28.34;41.28;94130.06;5054002;28;7257;-59
2023/05/29 05:23:43;;;;;;;;;;;;;;;28.35;40.50;94129.56;5058102;28;8991;-59
2023/05/29 05:26:46;;;;;;;;;;;;;;;28.33;41.14;94126.59;5073076;28;7298;-59
2023/05/29 05:29:29;;;;;;;;;;;;;;;28.33;41.17;94125.84;4974728;28;9053;-60
2023/05/29 05:32:15;;;;;;;;;;;;;;;28.36;40.58;94131.03;4975537;28;8314;-63
2023/05/29 05:35:07;;;;;;;;;;;;;;;;;;;;;
2023/05/29 05:37:34;;;;;;;;;;;;;;;28.35;40.39;94135.09;4974917;28;7055;-63
2023/05/29 05:40:14;;;;;;;;;;;;;;;28.34;40.46;94133.59;4960904;28;8241;-63
2023/05/29 05:43:03;;;;;;;;;;;;;;;28.32;40.68;94130.63;4980357;28;9685;-63
2023/05/29 05:45:41;;;;;;;;;;;;;;;28.36;40.57;94146.91;4979948;28;8998;-63
2023/05/29 05:48:19;;;;;;;;;;;;;;;28.34;40.92;94130.81;4989997;28;7246;-63
2023/05/29 05:51:06;;;;;;;;;;;;;;;28.38;40.52;94145.06;4989553;28;7267;-62
2023/05/29 05:53:55;;;;;;;;;;;;;;;28.40;40.70;94139.00;4971240;28;7166;-63
2023/05/29 05:56:21;;;;;;;;;;;;;;;28.40;40.36;94141.78;4985175;28;8692;-63
2023/05/29 05:59:13;;;;;;;;;;;;;;;28.42;40.17;94147.53;4973627;28;7323;-63
2023/05/29 06:02:23;;;;;;;;;;;;;;;28.43;40.71;94156.56;4963044;28;7593;-63
2023/05/29 06:04:55;;;;;;;;;;;;;;;28.41;40.64;94148.78;5051600;28;7049;-63
2023/05/29 06:07:21;;;;;;;;;;;;;;;28.40;40.32;94150.09;5058638;28;7311;-62
2023/05/29 06:09:49;;;;;;;;;;;;;;;28.38;40.78;94160.94;5073019;28;9118;-64
2023/05/29 06:12:20;;;;;;;;;;;;;;;28.41;40.33;94151.56;5050143;28;8714;-63
2023/05/29 06:15:23;;;;;;;;;;;;;;;28.44;40.33;94152.50;5048924;28;6978;-63
2023/05/29 06:18:08;;;;;;;;;;;;;;;;;;;;;
2023/05/29 06:20:56;;;;;;;;;;;;;;;28.46;40.16;94164.53;5040971;28;9057;-63
2023/05/29 06:23:26;;;;;;;;;;;;;;;28.44;40.39;94158.78;5065630;28;9033;-62
2023/05/29 06:26:13;;;;;;;;;;;;;;;28.43;40.37;94162.09;5044438;28;7195;-62
2023/05/29 06:28:53;;;;;;;;;;;;;;;28.42;40.46;94163.38;5063531;28;8884;-62
2023/05/29 06:31:28;;;;;;;;;;;;;;;28.41;40.51;94159.84;5042132;28;8762;-62
2023/05/29 06:34:32;;;;;;;;;;;;;;;28.41;40.30;94159.09;5041151;28;9111;-64
2023/05/29 06:37:03;;;;;;;;;;;;;;;28.40;40.21;94158.38;5045796;28;7385;-64
2023/05/29 06:39:54;;;;;;;;;;;;;;;;;;;;;
2023/05/29 06:42:29;;;;;;;;;;;;;;;28.41;39.77;94161.88;5040711;28;7207;-63
2023/05/29 06:45:13;;;;;;;;;;;;;;;28.41;39.90;94164.63;5046633;28;8751;-63
2023/05/29 06:47:51;;;;;;;;;;;;;;;28.38;40.33;94166.47;5038675;28;7348;-63
2023/05/29 06:50:25;;;;;;;;;;;;;;;28.36;40.52;94169.03;5039358;28;7391;-63
2023/05/29 06:53:18;;;;;;;;;;;;;;;28.33;39.54;94164.56;5034471;28;9648;-63
2023/05/29 06:55:47;;;;;;;;;;;;;;;28.29;39.69;94158.63;5049219;28;7195;-63
2023/05/29 06:58:45;;;;;;;;;;;;;;;28.29;39.23;94169.69;5032919;28;7659;-62
2023/05/29 07:01:32;;;;;;;;;;;;;;;28.25;39.86;94158.91;5027158;28;7266;-63
2023/05/29 07:04:06;;;;;;;;;;;;;;;28.20;39.68;94161.81;5042319;28;7092;-62
2023/05/29 07:06:40;;;;;;;;;;;;;;;28.20;39.49;94162.56;5031185;28;7087;-64
2023/05/29 07:09:18;;;;;;;;;;;;;;;28.27;39.22;94172.97;5023119;28;7318;-64
2023/05/29 07:12:09;;;;;;;;;;;;;;;28.26;39.56;94170.72;5046198;28;7846;-64
2023/05/29 07:15:07;;;;;;;;;;;;;;;28.28;39.76;94179.25;5019041;28;7254;-64
2023/05/29 07:17:45;;;;;;;;;;;;;;;28.25;39.49;94174.78;4964332;28;7068;-64
2023/05/29 07:20:12;;;;;;;;;;;;;;;28.24;39.59;94178.81;4953288;28;7752;-64
2023/05/29 07:22:55;;;;;;;;;;;;;;;28.26;39.31;94181.78;4950648;28;9113;-64
2023/05/29 07:25:48;;;;;;;;;;;;;;;28.27;39.40;94180.53;4955160;28;7269;-65
2023/05/29 07:28:34;;;;;;;;;;;;;;;28.19;39.84;94177.66;4954580;28;9076;-64
2023/05/29 07:31:47;;;;;;;;;;;;;;;28.21;39.34;94182.63;4952024;28;7282;-64
2023/05/29 07:34:41;;;;;;;;;;;;;;;28.20;39.34;94181.16;4905800;29;7995;-65
2023/05/29 07:37:08;;;;;;;;;;;;;;;28.22;39.71;94179.38;4907776;29;8747;-63
2023/05/29 07:39:40;;;;;;;;;;;;;;;28.19;39.97;94188.72;4888108;29;7120;-64
2023/05/29 07:42:49;;;;;;;;;;;;;;;28.20;39.40;94181.16;4892700;29;7152;-64
2023/05/29 07:45:20;;;;;;;;;;;;;;;28.18;39.60;94184.47;4915166;29;8919;-65
2023/05/29 07:48:06;;;;;;;;;;;;;;;28.17;39.96;94179.47;4911329;29;8948;-65
2023/05/29 07:50:53;;;;;;;;;;;;;;;28.17;39.74;94177.44;4898416;29;8972;-64
2023/05/29 07:53:28;;;;;;;;;;;;;;;28.18;40.43;94190.00;4903520;28;7124;-64
2023/05/29 07:56:46;;;;;;;;;;;;;;;28.24;39.82;94184.34;4955235;28;7120;-64
2023/05/29 07:59:17;;;;;;;;;;;;;;;28.23;39.85;94182.88;4953425;28;7045;-65
2023/05/29 08:01:49;;;;;;;;;;;;;;;28.25;39.96;94185.84;4937493;28;9702;-64
2023/05/29 08:05:00;;;;;;;;;;;;;;;28.27;40.37;94183.28;4952552;28;8405;-64
2023/05/29 08:07:36;;;;;;;;;;;;;;;28.27;40.51;94183.28;4936993;28;8940;-64
2023/05/29 08:10:07;;;;;;;;;;;;;;;28.30;40.46;94182.97;4936367;28;8636;-65
2023/05/29 08:13:05;;;;;;;;;;;;;;;28.31;40.68;94184.47;4972224;28;7321;-64
2023/05/29 08:16:06;;;;;;;;;;;;;;;;;;;;;
2023/05/29 08:19:06;;;;;;;;;;;;;;;28.31;40.43;94192.75;4948053;28;7058;-64
2023/05/29 08:21:50;;;;;;;;;;;;;;;28.27;40.30;94189.56;4922345;29;7627;-65
2023/05/29 08:24:29;;;;;;;;;;;;;;;;;;;;;
2023/05/29 08:27:15;;;;;;;;;;;;;;;28.28;40.40;94184.78;4937215;28;7454;-64
2023/05/29 08:29:45;;;;;;;;;;;;;;;28.29;40.75;94192.56;4931401;29;7514;-64
2023/05/29 08:35:22;;;;;;;;;;;;;;;28.30;40.84;94187.75;4867414;29;7921;-64
2023/05/29 08:37:48;;;;;;;;;;;;;;;28.28;40.63;94190.31;4858564;29;9238;-64
2023/05/29 08:40:14;;;;;;;;;;;;;;;28.30;40.46;94187.75;4844690;29;7318;-64
2023/05/29 08:43:01;;;;;;;;;;;;;;;28.25;40.70;94189.34;4845469;29;7082;-63
2023/05/29 08:45:39;;;;;;;;;;;;;;;28.29;40.01;94180.75;4848483;29;8707;-65
2023/05/29 08:48:10;;;;;;;;;;;;;;;28.28;40.04;94182.00;4873984;29;7382;-64
2023/05/29 08:50:46;;;;;;;;;;;;;;;28.29;39.60;94194.56;4877763;29;7517;-64
2023/05/29 08:53:23;;;;;;;;;;;;;;;28.26;39.68;94192.84;4911009;29;7678;-64
2023/05/29 08:55:58;;;;;;;;;;;;;;;28.28;39.63;94190.31;4907706;29;9434;-64
2023/05/29 08:58:29;;;;;;;;;;;;;;;28.31;39.57;94192.75;4967368;28;9070;-64
2023/05/29 09:01:23;;;;;;;;;;;;;;;28.35;39.60;94186.91;4991749;28;9455;-65
2023/05/29 09:03:52;;;;;;;;;;;;;;;28.40;39.77;94199.88;4971453;28;7041;-64
2023/05/29 09:06:43;;;;;;;;;;;;;;;28.39;39.71;94195.59;4970820;28;7273;-64
2023/05/29 09:09:14;;;;;;;;;;;;;;;28.38;39.86;94201.69;4930272;28;7345;-63
2023/05/29 09:11:44;;;;;;;;;;;;;;;28.42;39.59;94191.78;4938756;28;9029;-64
2023/05/29 09:14:45;;;;;;;;;;;;;;;;;;;;;
2023/05/29 09:17:13;;;;;;;;;;;;;;;28.49;39.78;94199.44;4959487;28;7357;-64
2023/05/29 09:19:45;;;;;;;;;;;;;;;28.52;39.68;94203.88;4949281;28;7315;-64
2023/05/29 09:22:14;;;;;;;;;;;;;;;28.53;38.96;94199.84;4946390;28;8792;-64
2023/05/29 09:24:57;;;;;;;;;;;;;;;28.59;39.08;94208.06;4949937;28;7917;-64
2023/05/29 09:27:36;;;;;;;;;;;;;;;28.61;39.26;94211.03;4964362;28;9129;-65
2023/05/29 09:30:30;;;;;;;;;;;;;;;28.58;39.07;94210.06;4957578;28;9025;-65
2023/05/29 09:33:22;;;;;;;;;;;;;;;28.58;39.14;94201.06;4950559;28;7234;-65
2023/05/29 09:36:20;;;;;;;;;;;;;;;28.57;39.09;94205.84;4968858;28;7037;-64
2023/05/29 09:38:55;;;;;;;;;;;;;;;28.57;39.36;94200.31;4960620;28;9030;-64
2023/05/29 09:41:53;;;;;;;;;;;;;;;28.59;39.33;94203.28;4989615;28;7304;-65
2023/05/29 09:44:34;;;;;;;;;;;;;;;28.60;39.68;94199.22;4952834;28;7397;-64
2023/05/29 09:47:44;;;;;;;;;;;;;;;28.62;39.90;94196.69;4970453;28;7016;-64
2023/05/29 09:50:48;;;;;;;;;;;;;;;28.61;39.49;94197.94;4931925;29;7966;-64
2023/05/29 09:54:06;;;;;;;;;;;;;;;;;;;;;
2023/05/29 09:57:29;;;;;;;;;;;;;;;28.60;39.02;94188.16;4856029;29;7305;-63
2023/05/29 09:59:55;;;;;;;;;;;;;;;28.62;39.29;94195.94;4774833;29;7465;-65
2023/05/29 10:02:41;;;;;;;;;;;;;;;28.60;39.07;94190.91;4761401;29;8323;-62
2023/05/29 10:05:23;;;;;;;;;;;;;;;28.60;38.81;94184.66;4775875;30;7945;-62
2023/05/29 10:07:54;;;;;;;;;;;;;;;28.64;38.54;94177.50;4761349;30;8544;-62
2023/05/29 10:10:26;;;;;;;;;;;;;;;28.62;38.56;94180.06;4788052;29;7708;-62
2023/05/29 10:12:55;;;;;;;;;;;;;;;28.65;38.55;94184.53;4791274;29;8911;-62
2023/05/29 10:15:35;;;;;;;;;;;;;;;28.65;39.09;94172.69;4755086;29;7503;-62
2023/05/29 10:18:12;;;;;;;;;;;;;;;28.70;38.69;94183.66;4769899;29;8427;-62
2023/05/29 10:20:59;;;;;;;;;;;;;;;28.73;39.20;94187.38;4771249;29;7589;-61
2023/05/29 10:23:37;;;;;;;;;;;;;;;28.76;37.89;94184.28;4766985;30;7817;-61
2023/05/29 10:26:36;;;;;;;;;;;;;;;;;;;;;
2023/05/29 10:29:57;;;;;;;;;;;;;;;28.78;38.22;94175.44;4846931;29;7228;-62
2023/05/29 10:32:59;;;;;;;;;;;;;;;28.81;38.77;94177.88;4905464;29;7341;-62
2023/05/29 10:35:50;;;;;;;;;;;;;;;28.81;38.11;94171.59;4982832;28;8892;-61
2023/05/29 10:38:21;;;;;;;;;;;;;;;28.80;38.05;94176.38;4982729;28;9172;-61
2023/05/29 10:40:59;;;;;;;;;;;;;;;;;;;;;
2023/05/29 10:43:37;;;;;;;;;;;;;;;28.81;37.36;94166.81;4982430;28;7223;-62
2023/05/29 10:46:08;;;;;;;;;;;;;;;28.82;37.69;94171.06;4981303;28;7049;-62
2023/05/29 10:48:38;;;;;;;;;;;;;;;28.83;37.51;94169.03;4985372;28;7307;-62
2023/05/29 10:51:09;;;;;;;;;;;;;;;28.83;37.48;94167.03;4985555;28;7278;-62
2023/05/29 10:53:40;;;;;;;;;;;;;;;28.85;37.16;94164.44;4982643;28;7616;-61
2023/05/29 10:56:41;;;;;;;;;;;;;;;28.85;37.16;94167.22;4996335;28;7238;-62
2023/05/29 10:59:30;;;;;;;;;;;;;;;28.83;37.78;94166.28;4985135;28;9174;-61
2023/05/29 11:02:00;;;;;;;;;;;;;;;28.85;37.68;94158.16;4987047;28;9127;-61
2023/05/29 11:05:04;;;;;;;;;;;;;;;28.83;37.57;94158.72;4991590;28;9001;-61
2023/05/29 11:08:19;;;;;;;;;;;;;;;28.85;36.85;94164.44;4975770;28;7123;-61
2023/05/29 11:10:59;;;;;;;;;;;;;;;28.88;37.04;94163.34;4987245;28;9358;-61
2023/05/29 11:13:54;;;;;;;;;;;;;;;28.89;37.31;94156.56;4979646;28;9504;-62
2023/05/29 11:16:36;;;;;;;;;;;;;;;28.90;37.13;94157.31;4993130;28;7929;-62
2023/05/29 11:19:10;;;;;;;;;;;;;;;28.91;37.07;94156.00;4990204;28;9796;-62
2023/05/29 11:21:55;;;;;;;;;;;;;;;28.92;37.03;94158.25;4973144;28;9068;-61
2023/05/29 11:24:26;;;;;;;;;;;;;;;28.90;36.97;94155.28;4990814;28;7928;-62
2023/05/29 11:27:11;;;;;;;;;;;;;;;28.89;37.05;94151.03;4990587;28;9073;-62
2023/05/29 11:29:53;;;;;;;;;;;;;;;28.93;37.89;94153.44;4975253;28;6860;-62
2023/05/29 11:32:47;;;;;;;;;;;;;;;;;;;;;
2023/05/29 11:35:35;;;;;;;;;;;;;;;28.96;37.46;94161.44;4990620;28;7032;-61
2023/05/29 11:38:03;;;;;;;;;;;;;;;28.97;37.38;94154.59;4988783;28;7114;-62
2023/05/29 11:40:37;;;;;;;;;;;;;;;28.99;37.85;94156.84;4987051;28;9056;-61
2023/05/29 11:43:05;;;;;;;;;;;;;;;28.98;37.52;94156.09;4978407;28;7313;-62
2023/05/29 11:45:43;;;;;;;;;;;;;;;28.97;37.90;94151.84;4992104;28;9324;-62
2023/05/29 11:48:16;;;;;;;;;;;;;;;28.99;37.01;94152.03;5012072;28;7650;-61
2023/05/29 11:51:14;;;;;;;;;;;;;;;29.02;37.74;94155.75;4987237;28;7031;-62
2023/05/29 11:54:19;;;;;;;;;;;;;;;29.02;37.90;94156.50;5009909;28;7024;-62
2023/05/29 11:57:05;;;;;;;;;;;;;;;;;;;;;
2023/05/29 11:59:58;;;;;;;;;;;;;;;;;;;;;
2023/05/29 12:03:04;;;;;;;;;;;;;;;28.99;38.09;94154.06;5007189;28;7203;-62
2023/05/29 12:06:02;;;;;;;;;;;;;;;;;;;;;
2023/05/29 12:08:45;;;;;;;;;;;;;;;;;;;;;
2023/05/29 12:11:31;;;;;;;;;;;;;;;29.08;37.95;94159.13;5006155;28;7305;-62
2023/05/29 12:14:20;;;;;;;;;;;;;;;29.10;37.63;94146.22;5013001;28;7357;-62
2023/05/29 12:17:08;;;;;;;;;;;;;;;29.13;37.50;94144.41;4991484;28;9197;-62
2023/05/29 12:19:34;;;;;;;;;;;;;;;29.14;37.04;94143.13;5002920;28;8002;-61
2023/05/29 12:22:26;;;;;;;;;;;;;;;;;;;;;
2023/05/29 12:25:04;;;;;;;;;;;;;;;;;;;;;
2023/05/29 12:27:32;;;;;;;;;;;;;;;29.21;37.65;94138.97;5013120;28;7690;-61
2023/05/29 12:30:38;;;;;;;;;;;;;;;29.21;37.41;94147.28;5012043;28;6916;-62
2023/05/29 12:33:36;;;;;;;;;;;;;;;29.22;38.26;94146.00;4968267;28;7659;-62
2023/05/29 12:36:30;;;;;;;;;;;;;;;29.20;37.83;94154.09;4893602;29;7246;-62
2023/05/29 12:39:13;;;;;;;;;;;;;;;29.17;37.59;94138.59;4908021;29;9253;-62
2023/05/29 12:45:22;;;;;;;;;;;;;;;;;;;;;
2023/05/29 12:48:07;;;;;;;;;;;;;;;29.22;38.45;94140.44;4930366;29;8055;-62
2023/05/29 12:50:58;;;;;;;;;;;;;;;29.24;37.84;94132.34;4925849;29;7449;-62
2023/05/29 12:57:09;;;;;;;;;;;;;;;29.25;37.64;94133.84;4884251;29;7260;-62
2023/05/29 13:03:27;;;;;;;;;;;;;;;29.30;37.98;94142.00;5071935;28;6700;-60
2023/05/29 13:09:10;;;;;;;;;;;;;;;29.29;37.95;94143.31;5044814;28;9465;-60
2023/05/29 13:12:24;;;;;;;;;;;;;;;29.30;37.69;94144.78;5028912;28;7273;-60
2023/05/29 13:14:55;;;;;;;;;;;;;;;29.34;38.19;94147.22;5017742;28;7006;-60
2023/05/29 13:17:55;;;;;;;;;;;;;;;29.32;38.87;94141.47;5026058;28;7246;-60
2023/05/29 13:21:07;;;;;;;;;;;;;;;29.33;37.81;94143.69;5009196;28;7460;-60
2023/05/29 13:23:38;;;;;;;;;;;;;;;29.35;38.33;94143.16;4929565;29;9104;-60
2023/05/29 13:26:37;;;;;;;;;;;;;;;29.39;38.15;94135.22;4927787;29;9236;-60
2023/05/29 13:29:31;;;;;;;;;;;;;;;29.40;38.54;94131.19;4865788;29;9430;-60
2023/05/29 13:31:57;;;;;;;;;;;;;;;29.37;38.60;94129.50;4866847;29;7226;-61
2023/05/29 13:34:45;;;;;;;;;;;;;;;;;;;;;
2023/05/29 13:37:43;;;;;;;;;;;;;;;29.42;38.06;94143.22;4871814;29;7271;-60
2023/05/29 13:40:29;;;;;;;;;;;;;;;29.43;38.68;94141.19;4841986;29;7600;-60
2023/05/29 13:43:02;;;;;;;;;;;;;;;29.46;38.17;94138.06;4824260;29;7472;-60
2023/05/29 13:45:33;;;;;;;;;;;;;;;29.49;38.78;94136.25;4828473;29;8784;-60
2023/05/29 13:48:34;;;;;;;;;;;;;;;;;;;;;
2023/05/29 13:51:39;;;;;;;;;;;;;;;29.52;38.52;94130.34;4829983;29;9008;-60
2023/05/29 13:54:21;;;;;;;;;;;;;;;29.56;38.58;94130.00;4833302;29;8099;-59
2023/05/29 13:57:09;;;;;;;;;;;;;;;29.57;38.90;94123.19;4829149;29;7283;-60
2023/05/29 14:00:15;;;;;;;;;;;;;;;29.57;38.76;94132.25;4867118;29;7093;-60
2023/05/29 14:03:01;;;;;;;;;;;;;;;29.60;38.29;94119.34;4847325;29;9254;-60
2023/05/29 14:05:49;;;;;;;;;;;;;;;29.58;38.21;94113.59;4878557;28;8300;-59
2023/05/29 14:11:35;;;;;;;;;;;;;;;;;;;;;
2023/05/29 14:14:03;;;;;;;;;;;;;;;29.63;38.17;94123.78;4894211;29;8848;-60
2023/05/29 14:17:14;;;;;;;;;;;;;;;;;;;;;
2023/05/29 14:19:45;;;;;;;;;;;;;;;29.71;38.67;94116.28;4878459;29;9439;-60
2023/05/29 14:22:40;;;;;;;;;;;;;;;29.72;37.48;94117.75;4879448;29;7102;-60
2023/05/29 14:25:38;;;;;;;;;;;;;;;;;;;;;
2023/05/29 14:28:33;;;;;;;;;;;;;;;29.74;37.25;94117.97;4878336;29;8716;-60
2023/05/29 14:31:09;;;;;;;;;;;;;;;29.73;37.76;94110.94;4881041;29;7446;-60
2023/05/29 14:33:50;;;;;;;;;;;;;;;29.78;38.21;94116.34;4876212;29;8780;-60
2023/05/29 14:36:49;;;;;;;;;;;;;;;29.82;38.13;94118.03;4889706;29;7280;-59
2023/05/29 14:39:36;;;;;;;;;;;;;;;29.82;38.67;94118.03;4935307;28;9566;-59
2023/05/29 14:42:05;;;;;;;;;;;;;;;29.80;37.75;94107.47;4930549;28;9147;-60
2023/05/29 14:44:33;;;;;;;;;;;;;;;29.84;37.82;94113.41;4936601;28;7054;-59
2023/05/29 14:47:14;;;;;;;;;;;;;;;29.87;37.82;94120.63;4933610;28;7033;-59
2023/05/29 14:50:17;;;;;;;;;;;;;;;29.89;37.38;94117.31;4956034;28;8739;-60
2023/05/29 14:53:10;;;;;;;;;;;;;;;29.91;37.48;94115.47;4937379;28;7060;-60
2023/05/29 14:55:56;;;;;;;;;;;;;;;;;;;;;
2023/05/29 14:58:47;;;;;;;;;;;;;;;29.93;36.58;94112.19;5027668;28;8797;-60
2023/05/29 15:01:34;;;;;;;;;;;;;;;29.92;36.54;94116.97;5003515;28;7349;-60
2023/05/29 15:04:30;;;;;;;;;;;;;;;;;;;;;
2023/05/29 15:07:10;;;;;;;;;;;;;;;;;;;;;
2023/05/29 15:10:06;;;;;;;;;;;;;;;29.97;38.34;94118.13;5021998;28;7191;-60